createdAt,value
2018-05-31T00:02:02.538Z,24.10
2018-05-31T00:04:30.843Z,24.20
2018-05-31T00:06:59.285Z,24.10
2018-05-31T00:09:27.590Z,24.00
2018-05-31T00:11:55.836Z,23.90
2018-05-31T00:14:24.122Z,23.80
2018-05-31T00:16:52.403Z,23.90
2018-05-31T00:19:20.666Z,23.90
2018-05-31T00:21:48.963Z,23.90
2018-05-31T00:24:17.234Z,23.80
2018-05-31T00:26:45.578Z,23.70
2018-05-31T00:29:14.011Z,23.60
2018-05-31T00:31:43.067Z,23.40
2018-05-31T00:34:11.363Z,23.40
2018-05-31T00:36:39.768Z,23.40
2018-05-31T00:39:08.796Z,23.50
2018-05-31T00:41:37.074Z,23.50
2018-05-31T00:44:05.327Z,23.60
2018-05-31T00:46:34.371Z,23.60
2018-05-31T00:49:02.631Z,23.60
2018-05-31T00:51:30.910Z,23.60
2018-05-31T00:53:59.198Z,23.60
2018-05-31T00:56:27.499Z,23.60
2018-05-31T00:58:56.546Z,23.40
2018-05-31T01:01:24.818Z,23.40
2018-05-31T01:03:53.117Z,23.10
2018-05-31T01:06:21.424Z,22.80
2018-05-31T01:08:50.478Z,22.70
2018-05-31T01:11:18.743Z,22.70
2018-05-31T01:13:47.070Z,22.60
2018-05-31T01:16:15.307Z,22.60
2018-05-31T01:18:43.780Z,22.70
2018-05-31T01:21:12.049Z,22.90
2018-05-31T01:23:41.140Z,23.20
2018-05-31T01:26:09.412Z,23.10
2018-05-31T01:28:37.747Z,23.30
2018-05-31T01:31:06.175Z,23.10
2018-05-31T01:33:34.451Z,23.00
2018-05-31T01:36:02.732Z,22.80
2018-05-31T01:38:31.047Z,22.70
2018-05-31T01:41:00.078Z,22.50
2018-05-31T01:43:28.352Z,22.50
2018-05-31T01:45:56.647Z,22.30
2018-05-31T01:48:25.110Z,22.30
2018-05-31T01:50:53.398Z,22.20
2018-05-31T01:53:21.699Z,22.20
2018-05-31T01:55:50.755Z,22.30
2018-05-31T01:58:19.123Z,22.20
2018-05-31T02:00:47.504Z,22.40
2018-05-31T02:03:15.762Z,22.50
2018-05-31T02:05:44.130Z,22.50
2018-05-31T02:08:12.479Z,22.50
2018-05-31T02:10:40.754Z,22.30
2018-05-31T02:13:10.542Z,22.20
2018-05-31T02:15:38.847Z,22.20
2018-05-31T02:18:07.907Z,22.30
2018-05-31T02:20:36.184Z,22.30
2018-05-31T02:23:04.446Z,22.40
2018-05-31T02:25:32.729Z,22.40
2018-05-31T02:28:00.997Z,22.40
2018-05-31T02:30:29.568Z,22.40
2018-05-31T02:32:57.910Z,22.50
2018-05-31T02:35:26.954Z,22.10
2018-05-31T02:37:55.262Z,22.10
2018-05-31T02:40:23.746Z,22.00
2018-05-31T02:42:52.812Z,21.80
2018-05-31T02:45:21.090Z,21.70
2018-05-31T02:47:49.550Z,21.70
2018-05-31T02:50:17.810Z,21.80
2018-05-31T02:52:46.100Z,21.70
2018-05-31T02:55:14.427Z,21.60
2018-05-31T02:57:43.508Z,21.70
2018-05-31T03:00:12.523Z,21.60
2018-05-31T03:02:41.646Z,21.50
2018-05-31T03:05:10.071Z,21.50
2018-05-31T03:07:38.359Z,21.50
2018-05-31T03:10:07.448Z,21.40
2018-05-31T03:12:36.487Z,21.40
2018-05-31T03:15:04.751Z,21.40
2018-05-31T03:17:33.039Z,21.40
2018-05-31T03:20:01.470Z,21.40
2018-05-31T03:22:29.898Z,21.60
2018-05-31T03:24:58.165Z,21.80
2018-05-31T03:27:26.536Z,21.80
2018-05-31T03:29:54.841Z,21.90
2018-05-31T03:32:23.255Z,21.90
2018-05-31T03:34:51.526Z,22.00
2018-05-31T03:37:19.793Z,22.00
2018-05-31T03:39:48.107Z,22.00
2018-05-31T03:42:16.378Z,22.00
2018-05-31T03:44:44.662Z,22.20
2018-05-31T03:47:12.947Z,22.40
2018-05-31T03:49:41.231Z,22.40
2018-05-31T03:52:09.600Z,22.30
2018-05-31T03:54:38.047Z,22.30
2018-05-31T03:57:06.331Z,22.30
2018-05-31T03:59:35.397Z,22.40
2018-05-31T04:02:03.642Z,22.40
2018-05-31T04:04:31.927Z,22.50
2018-05-31T04:07:00.187Z,22.60
2018-05-31T04:09:28.454Z,22.60
2018-05-31T04:11:56.738Z,22.70
2018-05-31T04:14:25.096Z,22.90
2018-05-31T04:16:53.391Z,23.00
2018-05-31T04:19:21.663Z,23.30
2018-05-31T04:21:51.570Z,23.40
2018-05-31T04:24:19.838Z,23.40
2018-05-31T04:26:48.180Z,23.40
2018-05-31T04:29:16.472Z,23.40
2018-05-31T04:31:44.812Z,23.60
2018-05-31T04:34:13.089Z,23.80
2018-05-31T04:36:41.526Z,24.10
2018-05-31T04:39:10.449Z,24.40
2018-05-31T04:41:39.719Z,24.80
2018-05-31T04:44:07.998Z,25.20
2018-05-31T04:46:36.289Z,25.30
2018-05-31T04:49:04.559Z,25.50
2018-05-31T04:51:32.834Z,25.90
2018-05-31T04:54:01.205Z,26.30
2018-05-31T04:56:29.483Z,26.60
2018-05-31T04:58:57.788Z,27.10
2018-05-31T05:01:26.131Z,27.50
2018-05-31T05:03:54.462Z,27.70
2018-05-31T05:06:23.519Z,28.30
2018-05-31T05:08:51.963Z,28.30
2018-05-31T05:11:20.270Z,28.30
2018-05-31T05:13:48.597Z,28.60
2018-05-31T05:16:17.630Z,28.90
2018-05-31T05:18:46.150Z,28.90
2018-05-31T05:21:14.510Z,28.80
2018-05-31T05:23:42.794Z,28.60
2018-05-31T05:26:11.134Z,28.40
2018-05-31T05:28:39.414Z,28.30
2018-05-31T05:31:07.638Z,28.30
2018-05-31T05:33:36.727Z,28.10
2018-05-31T05:36:07.130Z,27.80
2018-05-31T05:38:35.381Z,27.70
2018-05-31T05:41:03.712Z,27.40
2018-05-31T05:43:32.212Z,27.30
2018-05-31T05:46:00.431Z,27.00
2018-05-31T05:48:28.744Z,26.90
2018-05-31T05:50:57.001Z,26.80
2018-05-31T05:53:25.254Z,27.00
2018-05-31T05:55:53.709Z,27.10
2018-05-31T05:58:21.983Z,27.20
2018-05-31T06:00:50.250Z,27.20
2018-05-31T06:03:18.551Z,27.30
2018-05-31T06:05:46.827Z,27.30
2018-05-31T06:08:15.173Z,27.30
2018-05-31T06:10:44.171Z,27.30
2018-05-31T06:13:12.475Z,27.20
2018-05-31T06:15:40.813Z,27.40
2018-05-31T06:18:09.129Z,27.30
2018-05-31T06:20:37.554Z,27.30
2018-05-31T06:23:06.621Z,27.30
2018-05-31T06:27:55.674Z,27.40
2018-05-31T06:30:24.174Z,27.40
2018-05-31T06:32:53.950Z,27.40
2018-05-31T06:35:22.219Z,27.40
2018-05-31T06:37:50.493Z,27.40
2018-05-31T06:40:18.810Z,27.50
2018-05-31T06:42:47.087Z,27.50
2018-05-31T06:45:15.454Z,27.50
2018-05-31T06:47:43.845Z,27.40
2018-05-31T06:50:13.679Z,27.20
2018-05-31T06:52:42.705Z,27.20
2018-05-31T06:55:11.022Z,27.20
2018-05-31T06:57:39.253Z,27.10
2018-05-31T07:00:07.651Z,27.10
2018-05-31T07:02:35.971Z,27.10
2018-05-31T07:05:05.022Z,27.10
2018-05-31T07:07:33.296Z,27.10
2018-05-31T07:10:01.777Z,27.20
2018-05-31T07:12:30.157Z,27.30
2018-05-31T07:14:58.439Z,27.30
2018-05-31T07:17:26.696Z,27.30
2018-05-31T07:19:54.964Z,27.30
2018-05-31T07:22:23.238Z,27.30
2018-05-31T07:24:51.499Z,27.40
2018-05-31T07:27:19.779Z,27.30
2018-05-31T07:29:48.054Z,27.30
2018-05-31T07:32:16.330Z,27.30
2018-05-31T07:34:44.592Z,27.30
2018-05-31T07:37:13.017Z,27.30
2018-05-31T07:39:41.334Z,27.30
2018-05-31T07:42:10.379Z,27.20
2018-05-31T07:44:38.635Z,27.20
2018-05-31T07:47:06.929Z,27.20
2018-05-31T07:49:35.272Z,27.00
2018-05-31T07:52:03.568Z,27.00
2018-05-31T07:54:31.923Z,26.90
2018-05-31T07:57:00.172Z,26.80
2018-05-31T07:59:29.216Z,26.60
2018-05-31T08:01:57.481Z,26.60
2018-05-31T08:04:25.746Z,26.60
2018-05-31T08:06:54.047Z,26.70
2018-05-31T08:09:22.396Z,26.60
2018-05-31T08:11:51.400Z,26.60
2018-05-31T08:14:19.662Z,26.60
2018-05-31T08:16:47.923Z,26.60
2018-05-31T08:19:16.209Z,26.50
2018-05-31T08:21:44.462Z,26.60
2018-05-31T08:24:12.767Z,26.60
2018-05-31T08:26:41.038Z,26.70
2018-05-31T08:29:09.326Z,26.80
2018-05-31T08:31:37.721Z,26.70
2018-05-31T08:34:06.045Z,26.70
2018-05-31T08:36:35.062Z,26.90
2018-05-31T08:39:03.328Z,26.90
2018-05-31T08:41:32.339Z,27.00
2018-05-31T08:44:00.616Z,26.90
2018-05-31T08:46:28.870Z,27.00
2018-05-31T08:48:57.152Z,27.00
2018-05-31T08:51:25.503Z,26.90
2018-05-31T08:53:54.606Z,26.80
2018-05-31T08:56:22.887Z,26.80
2018-05-31T08:58:51.165Z,26.80
2018-05-31T09:01:19.456Z,26.80
2018-05-31T09:03:47.890Z,27.00
2018-05-31T09:06:16.181Z,27.00
2018-05-31T09:08:45.219Z,27.00
2018-05-31T09:11:13.591Z,27.00
2018-05-31T09:13:41.891Z,27.10
2018-05-31T09:16:11.013Z,27.10
2018-05-31T09:18:40.047Z,27.20
2018-05-31T09:21:08.385Z,27.10
2018-05-31T09:23:37.416Z,27.10
2018-05-31T09:26:05.737Z,27.10
2018-05-31T09:28:34.202Z,27.00
2018-05-31T09:31:02.563Z,27.00
2018-05-31T09:33:31.024Z,27.10
2018-05-31T09:35:59.293Z,27.10
2018-05-31T09:38:27.714Z,27.10
2018-05-31T09:40:56.834Z,27.00
2018-05-31T09:43:25.876Z,27.00
2018-05-31T09:45:54.159Z,27.00
2018-05-31T09:48:22.454Z,27.10
2018-05-31T09:50:50.718Z,27.00
2018-05-31T09:53:19.031Z,27.10
2018-05-31T09:55:47.312Z,27.10
2018-05-31T09:58:16.438Z,27.10
2018-05-31T10:00:44.624Z,27.10
2018-05-31T10:03:12.924Z,27.10
2018-05-31T10:05:41.242Z,27.20
2018-05-31T10:08:09.626Z,27.30
2018-05-31T10:10:37.879Z,27.40
2018-05-31T10:13:06.162Z,27.50
2018-05-31T10:15:34.455Z,27.50
2018-05-31T10:18:02.712Z,27.60
2018-05-31T10:20:30.987Z,27.60
2018-05-31T10:22:59.277Z,27.70
2018-05-31T10:25:27.663Z,27.70
2018-05-31T10:27:56.044Z,27.60
2018-05-31T10:30:24.344Z,27.60
2018-05-31T10:32:52.626Z,27.40
2018-05-31T10:35:20.919Z,27.40
2018-05-31T10:37:49.168Z,27.40
2018-05-31T10:40:18.327Z,27.60
2018-05-31T10:42:46.640Z,27.50
2018-05-31T10:45:14.899Z,27.60
2018-05-31T10:47:43.232Z,27.80
2018-05-31T10:50:11.511Z,27.90
2018-05-31T10:52:40.539Z,27.90
2018-05-31T10:55:08.808Z,28.00
2018-05-31T10:57:37.121Z,28.00
2018-05-31T11:00:05.398Z,27.90
2018-05-31T11:02:33.801Z,27.90
2018-05-31T11:05:02.812Z,28.00
2018-05-31T11:07:31.274Z,27.90
2018-05-31T11:10:00.306Z,28.10
2018-05-31T11:12:28.587Z,28.00
2018-05-31T11:14:57.129Z,28.10
2018-05-31T11:17:25.374Z,28.20
2018-05-31T11:19:53.615Z,28.20
2018-05-31T11:22:21.902Z,28.10
2018-05-31T11:24:50.180Z,28.20
2018-05-31T11:27:18.459Z,28.30
2018-05-31T11:29:46.720Z,28.40
2018-05-31T11:32:14.979Z,28.40
2018-05-31T11:34:43.292Z,28.40
2018-05-31T11:37:11.570Z,28.30
2018-05-31T11:39:39.874Z,28.30
2018-05-31T11:42:08.898Z,28.30
2018-05-31T11:44:37.184Z,28.30
2018-05-31T11:47:05.456Z,28.50
2018-05-31T11:49:34.550Z,28.60
2018-05-31T11:52:02.792Z,28.50
2018-05-31T11:54:31.065Z,28.60
2018-05-31T11:56:59.359Z,28.70
2018-05-31T11:59:27.640Z,28.70
2018-05-31T12:01:56.018Z,28.70
2018-05-31T12:04:24.331Z,28.60
2018-05-31T12:06:52.636Z,28.60
2018-05-31T12:09:21.652Z,28.60
2018-05-31T12:11:49.942Z,28.60
2018-05-31T12:14:18.249Z,28.60
2018-05-31T12:16:46.592Z,28.60
2018-05-31T12:19:14.866Z,28.60
2018-05-31T12:21:43.137Z,28.50
2018-05-31T12:24:11.695Z,28.60
2018-05-31T12:26:39.998Z,28.70
2018-05-31T12:29:08.291Z,28.70
2018-05-31T12:31:36.578Z,28.80
2018-05-31T12:34:04.834Z,28.70
2018-05-31T12:36:33.128Z,28.70
2018-05-31T12:39:01.443Z,28.70
2018-05-31T12:41:29.757Z,28.70
2018-05-31T12:43:58.040Z,28.70
2018-05-31T12:46:26.324Z,28.80
2018-05-31T12:48:54.616Z,28.80
2018-05-31T12:51:23.695Z,28.30
2018-05-31T12:53:51.948Z,28.30
2018-05-31T12:56:20.330Z,28.40
2018-05-31T12:58:48.705Z,28.50
2018-05-31T13:01:17.097Z,28.60
2018-05-31T13:03:45.360Z,28.50
2018-05-31T13:06:13.643Z,28.50
2018-05-31T13:08:41.917Z,28.50
2018-05-31T13:11:10.200Z,28.50
2018-05-31T13:13:38.759Z,28.50
2018-05-31T13:16:07.765Z,28.70
2018-05-31T13:18:36.036Z,28.60
2018-05-31T13:21:05.395Z,28.70
2018-05-31T13:23:34.451Z,28.70
2018-05-31T13:26:02.719Z,28.70
2018-05-31T13:28:30.982Z,28.80
2018-05-31T13:30:59.318Z,28.90
2018-05-31T13:33:27.615Z,29.00
2018-05-31T13:35:55.866Z,29.10
2018-05-31T13:38:24.907Z,29.40
2018-05-31T13:40:53.225Z,29.30
2018-05-31T13:43:22.265Z,29.30
2018-05-31T13:45:50.530Z,29.20
2018-05-31T13:48:19.075Z,29.20
2018-05-31T13:50:48.111Z,29.20
2018-05-31T13:53:16.399Z,29.20
2018-05-31T13:55:44.696Z,29.10
2018-05-31T13:58:12.990Z,29.10
2018-05-31T14:00:42.295Z,29.20
2018-05-31T14:03:10.704Z,29.20
2018-05-31T14:05:38.999Z,29.30
2018-05-31T14:08:07.395Z,29.30
2018-05-31T14:10:36.454Z,29.40
2018-05-31T14:13:04.849Z,29.30
2018-05-31T14:15:33.406Z,29.40
2018-05-31T14:18:01.674Z,29.50
2018-05-31T14:20:29.939Z,29.40
2018-05-31T14:22:58.487Z,29.50
2018-05-31T14:25:26.785Z,29.50
2018-05-31T14:27:55.100Z,29.60
2018-05-31T14:30:23.365Z,29.70
2018-05-31T14:32:51.622Z,29.70
2018-05-31T14:35:19.957Z,29.80
2018-05-31T14:37:48.269Z,29.80
2018-05-31T14:40:17.286Z,29.90
2018-05-31T14:42:45.570Z,29.80
2018-05-31T14:45:13.982Z,29.90
2018-05-31T14:47:42.301Z,29.90
2018-05-31T14:50:10.579Z,29.90
2018-05-31T14:52:38.836Z,29.90
2018-05-31T14:55:07.877Z,30.10
2018-05-31T14:57:36.174Z,30.00
2018-05-31T15:00:04.455Z,30.00
2018-05-31T15:02:32.756Z,29.90
2018-05-31T15:05:02.413Z,29.90
2018-05-31T15:07:31.626Z,29.90
2018-05-31T15:09:59.895Z,29.90
2018-05-31T15:12:28.488Z,30.00
2018-05-31T15:14:56.834Z,30.10
2018-05-31T15:17:25.103Z,30.10
2018-05-31T15:19:53.413Z,30.10
2018-05-31T15:22:21.683Z,30.10
2018-05-31T15:24:49.973Z,30.00
2018-05-31T15:27:19.019Z,30.00
2018-05-31T15:29:47.332Z,30.00
2018-05-31T15:32:15.616Z,30.10
2018-05-31T15:34:43.919Z,30.10
2018-05-31T15:37:12.217Z,30.10
2018-05-31T15:39:40.486Z,30.10
2018-05-31T15:42:08.813Z,30.00
2018-05-31T15:44:37.104Z,30.00
2018-05-31T15:47:06.147Z,29.60
2018-05-31T15:49:34.430Z,29.60
2018-05-31T15:52:02.662Z,29.60
2018-05-31T15:54:31.784Z,29.50
2018-05-31T15:57:00.050Z,29.50
2018-05-31T15:59:28.322Z,29.50
2018-05-31T16:01:56.602Z,29.40
2018-05-31T16:04:24.925Z,29.30
2018-05-31T16:06:53.252Z,29.40
2018-05-31T16:09:21.517Z,29.30
2018-05-31T16:11:49.778Z,29.30
2018-05-31T16:14:18.884Z,29.30
2018-05-31T16:16:47.206Z,29.20
2018-05-31T16:19:15.497Z,29.30
2018-05-31T16:21:43.751Z,29.20
2018-05-31T16:24:12.046Z,29.20
2018-05-31T16:26:40.319Z,29.20
2018-05-31T16:29:08.635Z,28.70
2018-05-31T16:31:36.878Z,28.70
2018-05-31T16:34:05.936Z,28.70
2018-05-31T16:36:34.179Z,28.70
2018-05-31T16:39:02.451Z,28.70
2018-05-31T16:41:31.470Z,28.80
2018-05-31T16:43:59.833Z,28.70
2018-05-31T16:46:28.092Z,28.70
2018-05-31T16:48:56.383Z,28.70
2018-05-31T16:51:24.671Z,28.60
2018-05-31T16:53:52.932Z,28.60
2018-05-31T16:56:21.190Z,28.60
2018-05-31T16:58:49.466Z,28.60
2018-05-31T17:01:17.787Z,28.60
2018-05-31T17:03:46.066Z,28.60
2018-05-31T17:06:14.347Z,28.60
2018-05-31T17:08:42.585Z,28.50
2018-05-31T17:11:10.851Z,28.50
2018-05-31T17:13:39.166Z,28.40
2018-05-31T17:16:07.411Z,28.40
2018-05-31T17:18:36.802Z,28.40
2018-05-31T17:21:05.074Z,28.20
2018-05-31T17:23:34.110Z,28.10
2018-05-31T17:26:02.354Z,28.00
2018-05-31T17:28:30.650Z,28.00
2018-05-31T17:30:58.923Z,27.90
2018-05-31T17:33:27.302Z,27.90
2018-05-31T17:35:55.583Z,27.90
2018-05-31T17:38:23.854Z,27.80
2018-05-31T17:40:52.155Z,27.70
2018-05-31T17:43:20.446Z,27.70
2018-05-31T17:45:49.494Z,27.60
2018-05-31T17:48:17.779Z,27.60
2018-05-31T17:50:46.787Z,27.50
2018-05-31T17:53:15.050Z,27.50
2018-05-31T17:55:43.331Z,27.50
2018-05-31T17:58:11.640Z,27.40
2018-05-31T18:00:40.684Z,27.30
2018-05-31T18:03:08.959Z,27.30
2018-05-31T18:05:37.265Z,27.30
2018-05-31T18:08:05.553Z,27.20
2018-05-31T18:10:34.627Z,27.20
2018-05-31T18:13:02.890Z,27.10
2018-05-31T18:15:31.227Z,27.30
2018-05-31T18:17:59.562Z,27.20
2018-05-31T18:20:28.155Z,27.10
2018-05-31T18:22:57.275Z,27.10
2018-05-31T18:25:26.439Z,27.00
2018-05-31T18:27:54.739Z,27.00
2018-05-31T18:30:23.074Z,26.90
2018-05-31T18:32:51.351Z,26.90
2018-05-31T18:35:19.616Z,26.80
2018-05-31T18:37:47.906Z,26.90
2018-05-31T18:40:17.007Z,26.90
2018-05-31T18:42:45.376Z,26.90
2018-05-31T18:45:13.656Z,26.90
2018-05-31T18:47:41.910Z,26.90
2018-05-31T18:50:10.182Z,26.80
2018-05-31T18:52:38.491Z,26.80
2018-05-31T18:55:07.655Z,26.60
2018-05-31T18:57:36.756Z,26.60
2018-05-31T19:00:05.037Z,26.50
2018-05-31T19:02:33.339Z,26.50
2018-05-31T19:05:02.363Z,26.40
2018-05-31T19:07:30.680Z,26.30
2018-05-31T19:09:58.947Z,26.30
2018-05-31T19:12:27.312Z,26.30
2018-05-31T19:14:55.584Z,26.10
2018-05-31T19:17:23.925Z,26.00
2018-05-31T19:19:52.258Z,25.90
2018-05-31T19:22:20.546Z,25.80
2018-05-31T19:24:49.606Z,25.80
2018-05-31T19:27:17.963Z,25.80
2018-05-31T19:29:46.239Z,25.80
2018-05-31T19:32:14.601Z,25.90
2018-05-31T19:34:42.881Z,25.80
2018-05-31T19:37:11.126Z,25.70
2018-05-31T19:39:40.152Z,25.70
2018-05-31T19:42:08.439Z,25.70
2018-05-31T19:44:36.733Z,25.70
2018-05-31T19:47:05.045Z,25.70
2018-05-31T19:49:34.108Z,25.70
2018-05-31T19:52:03.232Z,25.80
2018-05-31T19:54:31.557Z,25.70
2018-05-31T19:56:59.846Z,25.70
2018-05-31T19:59:28.915Z,25.70
2018-05-31T20:01:57.205Z,25.60
2018-05-31T20:04:25.447Z,25.70
2018-05-31T20:06:53.939Z,25.60
2018-05-31T20:09:22.212Z,25.60
2018-05-31T20:11:50.510Z,25.60
2018-05-31T20:14:18.766Z,25.60
2018-05-31T20:16:47.059Z,25.50
2018-05-31T20:19:15.366Z,25.50
2018-05-31T20:21:43.820Z,25.40
2018-05-31T20:24:12.101Z,25.40
2018-05-31T20:26:40.427Z,25.40
2018-05-31T20:29:08.710Z,25.30
2018-05-31T20:31:36.980Z,25.20
2018-05-31T20:34:06.019Z,25.00
2018-05-31T20:36:34.282Z,25.00
2018-05-31T20:39:02.582Z,25.00
2018-05-31T20:41:30.861Z,24.80
2018-05-31T20:43:59.176Z,24.80
2018-05-31T20:46:27.449Z,24.80
2018-05-31T20:48:55.790Z,24.80
2018-05-31T20:51:24.049Z,24.70
2018-05-31T20:53:52.328Z,24.70
2018-05-31T20:56:20.574Z,24.70
2018-05-31T20:58:48.857Z,24.70
2018-05-31T21:01:17.114Z,24.60
2018-05-31T21:03:45.411Z,24.60
2018-05-31T21:06:13.771Z,24.50
2018-05-31T21:08:42.146Z,24.50
2018-05-31T21:11:10.448Z,24.40
2018-05-31T21:13:38.744Z,24.30
2018-05-31T21:16:07.040Z,24.20
2018-05-31T21:18:36.080Z,24.00
2018-05-31T21:21:04.368Z,23.90
2018-05-31T21:23:32.654Z,23.90
2018-05-31T21:26:00.965Z,23.80
2018-05-31T21:28:29.515Z,23.70
2018-05-31T21:30:57.839Z,23.50
2018-05-31T21:33:26.838Z,23.50
2018-05-31T21:35:55.117Z,23.40
2018-05-31T21:38:23.398Z,23.40
2018-05-31T21:40:51.650Z,23.40
2018-05-31T21:43:20.753Z,23.30
2018-05-31T21:45:49.823Z,23.30
2018-05-31T21:48:18.962Z,23.30
2018-05-31T21:50:47.219Z,23.20
2018-05-31T21:53:15.539Z,23.30
2018-05-31T21:55:43.821Z,23.30
2018-05-31T21:58:13.751Z,23.10
2018-05-31T22:00:43.530Z,23.10
2018-05-31T22:03:11.876Z,23.00
2018-05-31T22:05:40.982Z,22.90
2018-05-31T22:08:09.191Z,22.80
2018-05-31T22:10:37.458Z,22.80
2018-05-31T22:13:05.765Z,22.80
2018-05-31T22:15:34.027Z,22.80
2018-05-31T22:18:02.302Z,22.80
2018-05-31T22:20:31.454Z,22.60
2018-05-31T22:22:59.723Z,22.60
2018-05-31T22:25:28.039Z,22.60
2018-05-31T22:27:57.116Z,22.40
2018-05-31T22:30:25.378Z,22.30
2018-05-31T22:32:53.664Z,22.30
2018-05-31T22:35:21.963Z,22.30
2018-05-31T22:37:50.993Z,22.30
2018-05-31T22:40:19.272Z,22.20
2018-05-31T22:42:48.480Z,22.20
2018-05-31T22:45:17.062Z,22.20
2018-05-31T22:47:45.358Z,22.20
2018-05-31T22:50:13.649Z,22.20
2018-05-31T22:52:41.930Z,22.20
2018-05-31T22:55:11.003Z,22.00
2018-05-31T22:57:39.285Z,22.00
2018-05-31T23:00:07.520Z,22.00
2018-05-31T23:02:35.566Z,21.90
2018-05-31T23:05:04.655Z,21.80
2018-05-31T23:07:33.726Z,21.90
2018-05-31T23:10:01.983Z,21.80
2018-05-31T23:12:30.260Z,21.90
2018-05-31T23:14:58.544Z,21.90
2018-05-31T23:17:26.841Z,21.80
2018-05-31T23:19:55.887Z,21.60
2018-05-31T23:22:24.164Z,21.60
2018-05-31T23:24:52.427Z,21.50
2018-05-31T23:27:20.714Z,21.40
2018-05-31T23:29:49.002Z,21.40
2018-05-31T23:32:17.294Z,21.40
2018-05-31T23:34:45.614Z,21.40
2018-05-31T23:37:13.865Z,21.50
2018-05-31T23:39:42.923Z,21.40
2018-05-31T23:42:11.210Z,21.30
2018-05-31T23:44:39.488Z,21.30
2018-05-31T23:47:07.755Z,21.40
2018-05-31T23:49:36.057Z,21.40
2018-05-31T23:52:04.314Z,21.40
2018-05-31T23:54:32.615Z,21.40
2018-05-31T23:57:01.847Z,21.40
2018-05-31T23:59:30.220Z,21.30
